Time;durP1;ratioP1;P1;durP2;ratioP2;P2;SDS_P1;SDS_P2;PMS_P1;PMS_P2;Temp;Humidity;BMP_temperature;BMP_pressure;BME280_temperature;BME280_humidity;BME280_pressure;Samples;Min_cycle;Max_cycle;Signal;HPM_P1;HPM_P2
2024/04/22 00:02:04;;;;;;;7.45;5.43;;;1.80;99.90;;;;;;5262237;26;20311;-75
2024/04/22 00:04:30;;;;;;;7.60;4.78;;;1.80;99.90;;;;;;5283871;26;20041;-74
2024/04/22 00:06:56;;;;;;;6.65;5.10;;;1.80;99.90;;;;;;5293648;26;19994;-75
2024/04/22 00:09:21;;;;;;;6.93;4.93;;;1.80;99.90;;;;;;5256774;26;20015;-75
2024/04/22 00:11:47;;;;;;;7.00;4.45;;;1.70;99.90;;;;;;5302587;26;19997;-75
2024/04/22 00:14:12;;;;;;;6.95;4.55;;;1.80;99.90;;;;;;5293706;26;20002;-74
2024/04/22 00:16:39;;;;;;;6.68;4.85;;;1.80;99.90;;;;;;5259180;27;20018;-74
2024/04/22 00:19:05;;;;;;;5.38;4.32;;;1.80;99.90;;;;;;5292180;27;20719;-75
2024/04/22 00:21:31;;;;;;;6.88;5.00;;;1.80;99.90;;;;;;5256555;27;20002;-74
2024/04/22 00:23:57;;;;;;;6.20;4.78;;;1.80;99.90;;;;;;5289508;27;20009;-74
2024/04/22 00:26:23;;;;;;;5.25;4.22;;;1.80;99.90;;;;;;5290464;27;20131;-74
2024/04/22 00:28:49;;;;;;;7.65;4.85;;;1.80;99.90;;;;;;5283359;27;20408;-74
2024/04/22 00:31:14;;;;;;;6.95;4.70;;;1.70;99.90;;;;;;5286473;27;20077;-74
2024/04/22 00:33:40;;;;;;;5.30;4.03;;;1.70;99.90;;;;;;5285594;26;20511;-74
2024/04/22 00:36:06;;;;;;;7.32;4.60;;;1.70;99.90;;;;;;5252062;27;20024;-74
2024/04/22 00:38:32;;;;;;;6.07;4.85;;;1.70;99.90;;;;;;5284734;27;20006;-73
2024/04/22 00:40:58;;;;;;;4.35;3.95;;;1.70;99.90;;;;;;5294353;26;20607;-73
2024/04/22 00:43:24;;;;;;;6.82;5.10;;;1.70;99.90;;;;;;5290745;26;20020;-74
2024/04/22 00:45:51;;;;;;;6.80;4.43;;;1.70;99.90;;;;;;5292616;26;20470;-74
2024/04/22 00:48:19;;;;;;;6.25;4.97;;;1.70;99.90;;;;;;5302659;26;20005;-74
2024/04/22 00:50:47;;;;;;;4.97;4.15;;;1.70;99.90;;;;;;5284582;26;20002;-75
2024/04/22 00:53:16;;;;;;;4.30;2.92;;;1.70;99.90;;;;;;5262853;27;21020;-75
2024/04/22 00:55:42;;;;;;;4.22;3.85;;;1.70;99.90;;;;;;5290184;26;20021;-74
2024/04/22 00:58:10;;;;;;;6.55;5.38;;;1.60;99.90;;;;;;5297312;27;20435;-74
2024/04/22 01:00:36;;;;;;;4.63;4.03;;;1.60;99.90;;;;;;5300947;26;20006;-75
2024/04/22 01:03:02;;;;;;;5.40;4.18;;;1.70;99.90;;;;;;5300597;26;20006;-75
2024/04/22 01:05:28;;;;;;;6.57;4.40;;;1.60;99.90;;;;;;5276693;27;20009;-75
2024/04/22 01:07:55;;;;;;;7.30;5.00;;;1.60;99.90;;;;;;5300633;26;20002;-75
2024/04/22 01:10:22;;;;;;;5.88;4.32;;;1.60;99.90;;;;;;5271954;27;19998;-73
2024/04/22 01:12:47;;;;;;;5.00;3.67;;;1.60;99.90;;;;;;5305313;26;19997;-74
2024/04/22 01:15:13;;;;;;;5.43;4.63;;;1.60;99.90;;;;;;5266144;27;19998;-74
2024/04/22 01:17:41;;;;;;;8.68;3.92;;;1.50;99.90;;;;;;5305121;26;20016;-74
2024/04/22 01:20:11;;;;;;;5.82;3.90;;;1.50;99.90;;;;;;5275148;26;20005;-75
2024/04/22 01:22:37;;;;;;;5.18;4.07;;;1.50;99.90;;;;;;5300067;26;20014;-74
2024/04/22 01:25:04;;;;;;;5.30;4.28;;;1.50;99.90;;;;;;5274602;27;20010;-75
2024/04/22 01:27:34;;;;;;;4.78;3.60;;;1.50;99.90;;;;;;5298683;27;20478;-74
2024/04/22 01:30:01;;;;;;;6.18;4.03;;;1.50;99.90;;;;;;5297078;27;19998;-73
2024/04/22 01:32:27;;;;;;;5.88;4.80;;;1.50;99.90;;;;;;5300412;26;20053;-73
2024/04/22 01:34:58;;;;;;;4.90;3.97;;;1.50;99.90;;;;;;5274309;26;20076;-73
2024/04/22 01:37:24;;;;;;;5.15;4.03;;;1.50;99.90;;;;;;5279804;27;20016;-73
2024/04/22 01:39:50;;;;;;;8.18;4.95;;;1.40;99.90;;;;;;5259141;27;20724;-73
2024/04/22 01:42:16;;;;;;;6.15;4.38;;;1.40;99.90;;;;;;5264910;27;20010;-75
2024/04/22 01:44:42;;;;;;;5.88;4.50;;;1.30;99.90;;;;;;5269086;27;20006;-74
2024/04/22 01:47:07;;;;;;;4.60;4.15;;;1.30;99.90;;;;;;5270523;27;19998;-74
2024/04/22 01:49:33;;;;;;;5.10;4.60;;;1.30;99.90;;;;;;5265706;27;20367;-74
2024/04/22 01:51:59;;;;;;;6.85;4.85;;;1.30;99.90;;;;;;5263002;27;20014;-74
2024/04/22 01:54:24;;;;;;;5.97;5.00;;;1.20;99.90;;;;;;5266836;27;20381;-74
2024/04/22 01:56:50;;;;;;;7.35;5.43;;;1.30;99.90;;;;;;5266256;27;20736;-75
2024/04/22 01:59:16;;;;;;;6.68;4.93;;;1.30;99.90;;;;;;5266053;27;20010;-74
2024/04/22 02:01:43;;;;;;;5.45;4.32;;;1.20;99.90;;;;;;5268375;27;20337;-74
2024/04/22 02:04:09;;;;;;;7.97;5.78;;;1.20;99.90;;;;;;5262601;27;20344;-73
2024/04/22 02:06:35;;;;;;;7.55;5.68;;;1.20;99.90;;;;;;5248531;27;19999;-74
2024/04/22 02:09:01;;;;;;;6.22;4.80;;;1.20;99.90;;;;;;5263824;27;20003;-76
2024/04/22 02:11:26;;;;;;;8.88;5.70;;;1.20;99.90;;;;;;5270505;27;20038;-74
2024/04/22 02:13:52;;;;;;;7.68;6.13;;;1.20;99.90;;;;;;5266655;27;19998;-75
2024/04/22 02:16:17;;;;;;;7.50;5.47;;;1.20;99.90;;;;;;5270531;27;20032;-74
2024/04/22 02:18:44;;;;;;;6.35;5.22;;;1.20;99.90;;;;;;5292284;26;20069;-74
2024/04/22 02:21:10;;;;;;;7.95;5.43;;;1.30;99.90;;;;;;5263798;27;20085;-76
2024/04/22 02:23:35;;;;;;;7.88;5.97;;;1.20;99.90;;;;;;5267532;27;20014;-73
2024/04/22 02:26:02;;;;;;;6.60;4.97;;;1.30;99.90;;;;;;5268463;27;20006;-74
2024/04/22 02:28:28;;;;;;;7.40;5.25;;;1.30;99.90;;;;;;5266690;27;20010;-73
2024/04/22 02:30:54;;;;;;;6.75;5.60;;;1.20;99.90;;;;;;5265415;27;20395;-73
2024/04/22 02:33:20;;;;;;;6.03;4.60;;;1.20;99.90;;;;;;5262719;27;20014;-73
2024/04/22 02:35:46;;;;;;;7.75;5.05;;;1.20;99.90;;;;;;5270660;27;20100;-74
2024/04/22 02:38:12;;;;;;;7.38;4.32;;;1.20;99.90;;;;;;5278849;27;20329;-74
2024/04/22 02:40:39;;;;;;;7.28;5.00;;;1.20;99.90;;;;;;5279905;26;19999;-73
2024/04/22 02:43:05;;;;;;;8.07;5.10;;;1.20;99.90;;;;;;5275172;27;21174;-74
2024/04/22 02:45:30;;;;;;;5.25;4.60;;;1.20;99.90;;;;;;5309026;26;20009;-74
2024/04/22 02:47:56;;;;;;;7.90;5.25;;;1.20;99.90;;;;;;5272488;27;20024;-74
2024/04/22 02:50:22;;;;;;;5.18;4.50;;;1.20;99.90;;;;;;5306615;26;20034;-74
2024/04/22 02:52:48;;;;;;;5.57;3.72;;;1.20;99.90;;;;;;5298759;27;20013;-75
2024/04/22 02:55:13;;;;;;;5.70;4.35;;;1.20;99.90;;;;;;5282885;27;20087;-74
2024/04/22 02:57:39;;;;;;;6.38;4.63;;;1.30;99.90;;;;;;5267161;27;20013;-75
2024/04/22 03:00:05;;;;;;;5.82;4.50;;;1.30;99.90;;;;;;5306371;26;20006;-74
2024/04/22 03:02:31;;;;;;;4.40;4.00;;;1.20;99.90;;;;;;5310262;26;20001;-73
2024/04/22 03:04:56;;;;;;;5.43;4.15;;;1.20;99.90;;;;;;5275134;27;20360;-74
2024/04/22 03:07:22;;;;;;;4.72;3.53;;;1.20;99.90;;;;;;5270340;27;20465;-74
2024/04/22 03:09:49;;;;;;;5.45;4.03;;;1.20;99.90;;;;;;5276203;27;20017;-75
2024/04/22 03:12:15;;;;;;;5.07;3.85;;;1.20;99.90;;;;;;5296858;26;19998;-73
2024/04/22 03:14:40;;;;;;;6.88;3.40;;;1.20;99.90;;;;;;5291329;26;20200;-74
2024/04/22 03:17:06;;;;;;;5.30;3.35;;;1.20;99.90;;;;;;5292586;26;20001;-73
2024/04/22 03:19:32;;;;;;;7.47;3.90;;;1.20;99.90;;;;;;5266425;27;20025;-73
2024/04/22 03:21:57;;;;;;;4.78;3.80;;;1.20;99.90;;;;;;5264932;27;20030;-74
2024/04/22 03:24:23;;;;;;;3.90;3.53;;;1.20;99.90;;;;;;5290719;26;20093;-74
2024/04/22 03:26:49;;;;;;;4.43;2.70;;;1.20;99.90;;;;;;5298068;26;20017;-73
2024/04/22 03:29:16;;;;;;;3.53;2.95;;;1.20;99.90;;;;;;5265638;26;20002;-74
2024/04/22 03:31:42;;;;;;;5.65;4.18;;;1.20;99.90;;;;;;5299038;26;20009;-73
2024/04/22 03:34:08;;;;;;;4.90;4.40;;;1.20;99.90;;;;;;5266251;27;20447;-75
2024/04/22 03:36:34;;;;;;;7.53;4.90;;;1.20;99.90;;;;;;5262813;27;20012;-73
2024/04/22 03:38:59;;;;;;;4.47;3.80;;;1.20;99.90;;;;;;5297608;26;20073;-73
2024/04/22 03:41:28;;;;;;;5.03;3.78;;;1.20;99.90;;;;;;5261956;26;19998;-74
2024/04/22 03:43:54;;;;;;;7.00;4.40;;;1.20;99.90;;;;;;5294464;26;20001;-73
2024/04/22 03:51:48;;;;;;;6.88;4.28;;;1.20;99.90;;;;;;5285212;27;20008;-74
2024/04/22 03:54:14;;;;;;;5.32;4.47;;;1.20;99.90;;;;;;5262470;26;20009;-74
2024/04/22 03:56:39;;;;;;;7.35;4.53;;;1.20;99.90;;;;;;5270557;27;20005;-73
2024/04/22 03:59:05;;;;;;;6.22;4.53;;;1.20;99.90;;;;;;5272821;26;20067;-74
2024/04/22 04:01:31;;;;;;;6.40;4.93;;;1.20;99.90;;;;;;5299656;26;20496;-74
2024/04/22 04:03:58;;;;;;;7.63;4.78;;;1.20;99.90;;;;;;5305315;26;20001;-73
2024/04/22 04:06:24;;;;;;;5.20;4.30;;;1.20;99.90;;;;;;5293843;26;20488;-73
2024/04/22 04:08:49;;;;;;;5.28;4.70;;;1.20;99.90;;;;;;5271594;27;20009;-73
2024/04/22 04:11:16;;;;;;;6.00;5.10;;;1.20;99.90;;;;;;5294131;27;20009;-74
2024/04/22 04:13:46;;;;;;;6.43;4.88;;;1.20;99.90;;;;;;5268454;27;20411;-73
2024/04/22 04:16:11;;;;;;;7.80;5.30;;;1.20;99.90;;;;;;5284527;27;19999;-73
2024/04/22 04:18:38;;;;;;;6.50;4.68;;;1.30;99.90;;;;;;5302007;26;20050;-73
2024/04/22 04:21:04;;;;;;;6.00;5.32;;;1.30;99.90;;;;;;5270109;27;20095;-73
2024/04/22 04:23:32;;;;;;;5.20;4.40;;;1.30;99.90;;;;;;5265737;27;20238;-73
2024/04/22 04:25:58;;;;;;;5.28;4.55;;;1.30;99.90;;;;;;5292865;26;20493;-74
2024/04/22 04:28:26;;;;;;;6.78;6.05;;;1.30;99.90;;;;;;5289266;26;20006;-72
2024/04/22 04:30:55;;;;;;;;;;;1.30;99.90;;;;;;5294462;26;20022;-71
2024/04/22 04:33:21;;;;;;;6.90;5.05;;;1.20;99.90;;;;;;5289982;26;19934;-73
2024/04/22 04:36:00;;;;;;;9.88;6.18;;;1.30;99.90;;;;;;5263201;26;20340;-73
2024/04/22 04:38:25;;;;;;;6.03;5.38;;;1.30;99.90;;;;;;5294591;26;20994;-72
2024/04/22 04:40:54;;;;;;;8.60;5.40;;;1.20;99.90;;;;;;5288363;26;20002;-72
2024/04/22 04:43:20;;;;;;;7.72;5.43;;;1.20;99.90;;;;;;5299600;27;20002;-73
2024/04/22 04:45:46;;;;;;;5.85;4.80;;;1.30;99.90;;;;;;5299717;26;20049;-73
2024/04/22 04:48:12;;;;;;;9.32;5.65;;;1.30;99.90;;;;;;5267823;27;20016;-73
2024/04/22 04:50:38;;;;;;;6.40;5.18;;;1.30;99.90;;;;;;5305503;26;20005;-74
2024/04/22 04:53:04;;;;;;;6.35;4.78;;;1.20;99.90;;;;;;5296013;26;20660;-73
2024/04/22 04:55:30;;;;;;;6.22;4.88;;;1.30;99.90;;;;;;5304833;27;20001;-73
2024/04/22 04:57:57;;;;;;;5.50;4.70;;;1.30;99.90;;;;;;5297453;26;20005;-74
2024/04/22 05:00:22;;;;;;;8.70;5.38;;;1.30;99.90;;;;;;5304231;26;20477;-75
2024/04/22 05:02:48;;;;;;;9.00;6.40;;;1.30;99.90;;;;;;5267474;27;20012;-73
2024/04/22 05:05:20;;;;;;;5.15;4.28;;;1.30;99.90;;;;;;5295896;26;20204;-74
2024/04/22 05:07:50;;;;;;;5.97;4.97;;;1.30;99.90;;;;;;5289000;26;20471;-73
2024/04/22 05:10:17;;;;;;;7.30;5.93;;;1.30;99.90;;;;;;5293084;27;20013;-74
2024/04/22 05:12:43;;;;;;;7.40;5.22;;;1.40;99.90;;;;;;5260792;27;20017;-74
2024/04/22 05:15:12;;;;;;;8.85;6.50;;;1.40;99.90;;;;;;5297129;26;22790;-73
2024/04/22 05:17:37;;;;;;;6.03;5.43;;;1.40;99.90;;;;;;5297333;26;20006;-73
2024/04/22 05:20:03;;;;;;;7.45;5.35;;;1.40;99.90;;;;;;5295069;26;20053;-74
2024/04/22 05:22:29;;;;;;;7.97;5.97;;;1.40;99.90;;;;;;5287910;26;20079;-73
2024/04/22 05:24:55;;;;;;;8.60;6.13;;;1.40;99.90;;;;;;5286308;26;20046;-74
2024/04/22 05:27:20;;;;;;;7.80;5.97;;;1.40;99.90;;;;;;5277559;26;20001;-73
2024/04/22 05:29:46;;;;;;;8.18;6.38;;;1.40;99.90;;;;;;5286652;26;20020;-73
2024/04/22 05:32:12;;;;;;;7.43;5.60;;;1.40;99.90;;;;;;5293733;26;19997;-73
2024/04/22 05:37:22;;;;;;;7.35;5.72;;;1.40;99.90;;;;;;5299835;27;20012;-74
2024/04/22 05:39:47;;;;;;;8.30;6.93;;;1.40;99.90;;;;;;5282916;27;20476;-74
2024/04/22 05:42:13;;;;;;;8.43;5.70;;;1.40;99.90;;;;;;5266415;27;19997;-73
2024/04/22 05:44:39;;;;;;;8.95;6.07;;;1.40;99.90;;;;;;5270629;27;20375;-73
2024/04/22 05:47:05;;;;;;;7.80;6.43;;;1.40;99.90;;;;;;5291728;26;20700;-73
2024/04/22 05:49:33;;;;;;;8.38;5.63;;;1.50;99.90;;;;;;5293000;27;20018;-73
2024/04/22 05:51:59;;;;;;;7.93;6.18;;;1.50;99.90;;;;;;5297805;26;20009;-73
2024/04/22 05:54:25;;;;;;;9.57;6.40;;;1.60;99.90;;;;;;5298608;27;20001;-73
2024/04/22 05:56:50;;;;;;;7.45;5.35;;;1.60;99.90;;;;;;5261179;26;20001;-73
2024/04/22 05:59:16;;;;;;;6.82;5.22;;;1.60;99.90;;;;;;5265371;27;20077;-75
2024/04/22 06:01:42;;;;;;;6.20;5.53;;;1.60;99.90;;;;;;5264108;27;20002;-73
2024/04/22 06:04:08;;;;;;;6.05;4.43;;;1.60;99.90;;;;;;5299440;26;20025;-73
2024/04/22 06:06:36;;;;;;;5.20;4.70;;;1.60;99.90;;;;;;5288752;27;20813;-73
2024/04/22 06:09:06;;;;;;;6.53;4.95;;;1.60;99.90;;;;;;5300885;27;20445;-73
2024/04/22 06:11:32;;;;;;;5.28;4.40;;;1.60;99.90;;;;;;5295005;26;20082;-73
2024/04/22 06:13:58;;;;;;;6.38;4.38;;;1.60;99.90;;;;;;5292109;27;20009;-73
2024/04/22 06:16:25;;;;;;;6.70;4.60;;;1.60;99.90;;;;;;5295136;26;20509;-73
2024/04/22 06:18:51;;;;;;;4.78;4.07;;;1.60;99.90;;;;;;5292638;27;20090;-73
2024/04/22 06:21:16;;;;;;;5.47;4.65;;;1.60;99.90;;;;;;5293330;27;19997;-73
2024/04/22 06:23:42;;;;;;;5.65;4.05;;;1.60;99.90;;;;;;5291136;27;20005;-73
2024/04/22 06:26:08;;;;;;;5.90;4.20;;;1.60;99.90;;;;;;5290034;26;20005;-73
2024/04/22 06:28:35;;;;;;;6.60;4.63;;;1.60;99.90;;;;;;5265347;27;20125;-73
2024/04/22 06:31:01;;;;;;;6.28;4.10;;;1.60;99.90;;;;;;5263190;27;20012;-73
2024/04/22 06:33:28;;;;;;;6.93;4.35;;;1.60;99.90;;;;;;5264841;27;20451;-73
2024/04/22 06:35:54;;;;;;;4.85;4.00;;;1.60;99.90;;;;;;5296060;26;20001;-72
2024/04/22 06:38:20;;;;;;;5.32;4.18;;;1.60;99.90;;;;;;5263908;26;20437;-73
2024/04/22 06:40:46;;;;;;;6.30;4.80;;;1.60;99.90;;;;;;5290340;27;20536;-73
2024/04/22 06:43:12;;;;;;;6.75;4.90;;;1.60;99.90;;;;;;5291591;27;20026;-74
2024/04/22 06:45:38;;;;;;;6.20;4.85;;;1.60;99.90;;;;;;5294983;26;20003;-74
2024/04/22 06:48:04;;;;;;;6.13;5.10;;;1.70;99.90;;;;;;5285938;27;20789;-72
2024/04/22 06:50:30;;;;;;;7.63;5.15;;;1.70;99.90;;;;;;5303585;27;20001;-74
2024/04/22 06:52:56;;;;;;;7.38;4.60;;;1.80;99.90;;;;;;5270141;27;20056;-73
2024/04/22 06:55:22;;;;;;;5.80;5.22;;;1.70;99.90;;;;;;5294194;26;20005;-73
2024/04/22 06:57:48;;;;;;;5.65;4.90;;;1.80;99.90;;;;;;5274874;27;20017;-73
2024/04/22 07:00:14;;;;;;;4.35;3.92;;;1.80;99.90;;;;;;5300184;27;20406;-74
2024/04/22 07:02:40;;;;;;;5.22;4.53;;;1.80;99.90;;;;;;5304232;26;20037;-76
2024/04/22 07:05:05;;;;;;;7.65;5.43;;;1.80;99.90;;;;;;5277597;27;20805;-73
2024/04/22 07:07:32;;;;;;;7.85;5.28;;;1.80;99.90;;;;;;5303536;26;20049;-73
2024/04/22 07:09:57;;;;;;;7.32;5.20;;;1.90;99.90;;;;;;5270519;27;19998;-74
2024/04/22 07:12:23;;;;;;;5.82;5.15;;;1.80;99.90;;;;;;5273085;27;20002;-73
2024/04/22 07:14:49;;;;;;;7.72;5.28;;;1.90;99.90;;;;;;5305870;26;20009;-72
2024/04/22 07:17:15;;;;;;;8.85;5.95;;;1.90;99.90;;;;;;5301041;27;20015;-73
2024/04/22 07:19:40;;;;;;;8.25;5.50;;;2.00;99.90;;;;;;5269644;27;20001;-73
2024/04/22 07:22:06;;;;;;;7.50;5.50;;;2.00;99.90;;;;;;5300881;27;20105;-72
2024/04/22 07:24:32;;;;;;;7.95;6.07;;;2.10;99.90;;;;;;5275675;27;20220;-73
2024/04/22 07:26:58;;;;;;;11.70;7.45;;;2.20;99.90;;;;;;5290583;27;19997;-75
2024/04/22 07:29:24;;;;;;;6.60;5.88;;;2.20;99.90;;;;;;5286838;27;20238;-75
2024/04/22 07:31:50;;;;;;;9.35;6.45;;;2.10;99.90;;;;;;5318214;27;20001;-73
2024/04/22 07:34:16;;;;;;;7.40;6.55;;;2.20;99.90;;;;;;5315962;26;19994;-74
2024/04/22 07:37:13;;;;;;;7.90;6.60;;;2.20;99.90;;;;;;5320912;26;20009;-71
2024/04/22 07:39:42;;;;;;;8.18;6.60;;;2.20;99.90;;;;;;5293194;27;20013;-75
2024/04/22 07:42:08;;;;;;;8.10;7.20;;;2.20;99.90;;;;;;5313351;27;20002;-76
2024/04/22 07:44:34;;;;;;;7.90;6.25;;;2.30;99.90;;;;;;5316659;26;20103;-75
2024/04/22 07:46:59;;;;;;;8.40;7.40;;;2.30;99.90;;;;;;5323400;26;20001;-73
2024/04/22 07:49:25;;;;;;;8.98;6.07;;;2.60;99.90;;;;;;5295207;26;20013;-74
2024/04/22 07:51:50;;;;;;;7.47;6.40;;;3.10;99.90;;;;;;5293355;27;20001;-73
2024/04/22 07:54:16;;;;;;;7.20;6.40;;;3.30;99.90;;;;;;5291638;26;20072;-72
2024/04/22 07:56:42;;;;;;;7.57;6.80;;;3.30;99.90;;;;;;5291086;26;20007;-70
2024/04/22 07:59:09;;;;;;;7.78;6.47;;;3.20;99.90;;;;;;5291882;27;20081;-72
2024/04/22 08:01:35;;;;;;;7.78;5.57;;;3.00;99.90;;;;;;5286569;26;20002;-73
2024/04/22 08:04:02;;;;;;;7.00;5.35;;;3.00;99.90;;;;;;5295252;26;20023;-74
2024/04/22 08:06:37;;;;;;;7.13;5.93;;;3.00;99.90;;;;;;5260180;27;20001;-72
2024/04/22 08:09:03;;;;;;;8.05;5.30;;;3.00;99.90;;;;;;5293829;27;20666;-71
2024/04/22 08:11:29;;;;;;;9.25;5.80;;;2.90;99.90;;;;;;5291246;27;19998;-72
2024/04/22 08:13:55;;;;;;;7.93;5.72;;;2.90;99.90;;;;;;5292401;26;20010;-73
2024/04/22 08:16:21;;;;;;;6.63;5.85;;;3.00;99.90;;;;;;5296535;27;19998;-73
2024/04/22 08:18:46;;;;;;;5.88;4.90;;;3.00;99.90;;;;;;5290699;26;19997;-73
2024/04/22 08:21:12;;;;;;;5.72;5.15;;;3.00;99.90;;;;;;5285234;26;20012;-72
2024/04/22 08:23:38;;;;;;;6.20;5.35;;;3.00;99.90;;;;;;5284931;26;20053;-72
2024/04/22 08:26:04;;;;;;;5.90;5.38;;;3.10;99.90;;;;;;5294405;26;20468;-72
2024/04/22 08:28:30;;;;;;;5.43;4.40;;;3.10;99.90;;;;;;5289972;26;20044;-72
2024/04/22 08:31:02;;;;;;;5.18;4.30;;;3.10;99.90;;;;;;5255845;27;20005;-72
2024/04/22 08:33:28;;;;;;;4.50;4.13;;;3.00;99.90;;;;;;5292204;26;20428;-73
2024/04/22 08:35:54;;;;;;;5.55;4.75;;;3.10;99.90;;;;;;5265628;26;20009;-72
2024/04/22 08:38:19;;;;;;;6.80;4.93;;;3.10;99.90;;;;;;5286329;27;20002;-71
2024/04/22 08:40:45;;;;;;;7.32;4.45;;;3.10;99.90;;;;;;5297795;27;19997;-72
2024/04/22 08:43:15;;;;;;;6.45;4.78;;;3.10;99.90;;;;;;5301729;26;20013;-71
2024/04/22 08:45:47;;;;;;;5.82;4.35;;;3.20;99.90;;;;;;5260275;27;19997;-71
2024/04/22 08:48:13;;;;;;;4.88;3.97;;;3.30;99.90;;;;;;5275454;27;20009;-72
2024/04/22 08:50:40;;;;;;;4.32;3.92;;;3.30;99.90;;;;;;5302531;26;20095;-72
2024/04/22 08:53:08;;;;;;;4.15;3.78;;;3.20;99.90;;;;;;5253001;26;20892;-72
2024/04/22 08:55:38;;;;;;;5.53;4.07;;;3.20;99.90;;;;;;5268179;27;20001;-72
2024/04/22 08:58:04;;;;;;;7.22;4.05;;;3.20;99.90;;;;;;5276638;27;20432;-72
2024/04/22 09:00:30;;;;;;;4.38;3.78;;;3.20;99.90;;;;;;5290735;26;20005;-72
2024/04/22 09:02:56;;;;;;;4.93;3.90;;;3.10;99.90;;;;;;5274161;27;20005;-71
2024/04/22 09:05:23;;;;;;;3.90;3.58;;;3.20;99.90;;;;;;5301240;27;20463;-73
2024/04/22 09:07:58;;;;;;;4.35;3.90;;;3.20;99.90;;;;;;5302680;26;20560;-72
2024/04/22 09:10:24;;;;;;;6.53;4.43;;;3.30;99.90;;;;;;5303726;27;20092;-72
2024/04/22 09:13:00;;;;;;;4.53;4.05;;;3.40;99.90;;;;;;5267932;26;20623;-72
2024/04/22 09:15:29;;;;;;;5.20;3.58;;;3.50;99.90;;;;;;5300691;27;20406;-73
2024/04/22 09:17:56;;;;;;;6.03;4.97;;;3.60;99.90;;;;;;5291980;26;20009;-74
2024/04/22 09:20:29;;;;;;;4.72;3.65;;;3.60;99.90;;;;;;5263963;27;20012;-73
2024/04/22 09:22:55;;;;;;;4.13;3.22;;;3.60;99.90;;;;;;5264982;27;19994;-74
2024/04/22 09:25:21;;;;;;;5.30;4.57;;;3.50;99.90;;;;;;5270329;27;20009;-73
2024/04/22 09:27:49;;;;;;;4.53;4.10;;;3.50;99.90;;;;;;5296589;27;20642;-73
2024/04/22 09:30:17;;;;;;;4.57;3.88;;;3.50;99.90;;;;;;5264135;27;20006;-73
2024/04/22 09:32:44;;;;;;;4.97;4.50;;;3.60;99.90;;;;;;5290708;26;20010;-74
2024/04/22 09:35:18;;;;;;;5.18;4.57;;;3.60;99.90;;;;;;5302569;26;20009;-73
2024/04/22 09:37:45;;;;;;;7.28;4.70;;;3.60;99.90;;;;;;5295554;27;20511;-73
2024/04/22 09:40:13;;;;;;;9.18;4.65;;;3.70;99.90;;;;;;5265962;27;20030;-73
2024/04/22 09:42:41;;;;;;;6.65;4.82;;;3.80;99.90;;;;;;5261443;27;20038;-73
2024/04/22 09:45:11;;;;;;;7.70;4.85;;;3.70;99.90;;;;;;5255669;27;20062;-73
2024/04/22 09:47:39;;;;;;;8.02;5.07;;;3.60;99.90;;;;;;5282507;27;20065;-73
2024/04/22 09:50:06;;;;;;;5.10;4.20;;;3.60;99.90;;;;;;5258391;27;20038;-73
2024/04/22 09:52:40;;;;;;;5.50;4.70;;;3.60;99.90;;;;;;5254149;27;20006;-74
2024/04/22 09:55:07;;;;;;;6.03;5.38;;;3.70;99.90;;;;;;5251827;27;20038;-73
2024/04/22 09:57:42;;;;;;;6.00;5.28;;;3.80;99.90;;;;;;5252470;27;20013;-72
2024/04/22 10:00:11;;;;;;;7.60;4.60;;;3.80;99.90;;;;;;5254407;27;20069;-72
2024/04/22 10:02:37;;;;;;;5.22;4.63;;;3.90;99.90;;;;;;5244458;27;20002;-73
2024/04/22 10:05:09;;;;;;;5.45;4.07;;;3.90;99.90;;;;;;5249025;27;20014;-73
2024/04/22 10:07:34;;;;;;;5.72;4.95;;;3.90;99.90;;;;;;5246934;27;20682;-73
2024/04/22 10:10:00;;;;;;;5.88;4.97;;;3.90;99.90;;;;;;5247384;27;20000;-73
2024/04/22 10:12:27;;;;;;;5.53;4.85;;;3.90;99.90;;;;;;5249258;27;20092;-71
2024/04/22 10:15:05;;;;;;;4.85;4.45;;;3.90;99.90;;;;;;5258134;27;20005;-73
2024/04/22 10:17:32;;;;;;;4.83;4.43;;;4.10;99.90;;;;;;5272404;27;20388;-73
2024/04/22 10:19:59;;;;;;;5.47;4.97;;;4.20;99.90;;;;;;5250363;27;19994;-73
2024/04/22 10:22:32;;;;;;;5.07;4.57;;;4.20;99.90;;;;;;5255646;27;20057;-73
2024/04/22 10:24:58;;;;;;;4.45;3.90;;;4.30;99.90;;;;;;5254706;27;20014;-73
2024/04/22 10:27:25;;;;;;;4.30;3.63;;;4.40;99.90;;;;;;5255855;27;20027;-72
2024/04/22 10:29:50;;;;;;;10.90;4.40;;;4.70;99.90;;;;;;5249562;27;20034;-71
2024/04/22 10:32:16;;;;;;;4.75;4.18;;;4.80;99.90;;;;;;5254505;27;20350;-72
2024/04/22 10:34:43;;;;;;;4.85;3.63;;;4.80;99.90;;;;;;5252832;27;20014;-72
2024/04/22 10:37:09;;;;;;;4.55;4.10;;;4.90;99.90;;;;;;5252743;27;19995;-72
2024/04/22 10:39:35;;;;;;;4.45;3.72;;;5.00;99.90;;;;;;5285594;27;20349;-72
2024/04/22 10:42:01;;;;;;;4.93;4.18;;;4.90;99.90;;;;;;5282091;27;19998;-72
2024/04/22 10:44:27;;;;;;;5.45;3.72;;;5.10;99.90;;;;;;5259613;27;20001;-71
2024/04/22 10:46:54;;;;;;;4.68;4.10;;;5.20;99.90;;;;;;5291439;26;20025;-72
2024/04/22 10:49:19;;;;;;;5.07;4.22;;;5.40;99.90;;;;;;5294291;27;20497;-73
2024/04/22 10:51:45;;;;;;;4.90;4.20;;;5.50;99.90;;;;;;5288804;26;20006;-73
2024/04/22 10:54:12;;;;;;;4.00;3.60;;;5.40;99.90;;;;;;5263092;27;19998;-73
2024/04/22 10:56:39;;;;;;;4.65;3.95;;;5.50;99.90;;;;;;5251798;26;20005;-72
2024/04/22 10:59:04;;;;;;;4.28;3.88;;;5.40;99.90;;;;;;5265832;26;20011;-73
2024/04/22 11:01:30;;;;;;;4.65;3.80;;;5.20;99.90;;;;;;5285195;26;20002;-73
2024/04/22 11:03:57;;;;;;;4.50;3.83;;;5.10;99.90;;;;;;5296645;27;20014;-72
2024/04/22 11:06:22;;;;;;;3.80;3.40;;;5.00;99.90;;;;;;5287677;26;20013;-73
2024/04/22 11:08:48;;;;;;;4.38;3.50;;;5.00;99.90;;;;;;5287170;27;20339;-73
2024/04/22 11:11:15;;;;;;;6.47;3.17;;;5.20;99.90;;;;;;5289587;26;20087;-72
2024/04/22 11:13:41;;;;;;;5.15;3.45;;;5.30;99.90;;;;;;5292011;27;20642;-73
2024/04/22 11:16:10;;;;;;;6.07;3.85;;;5.70;99.90;;;;;;5294273;26;20030;-72
2024/04/22 11:18:36;;;;;;;3.75;3.38;;;5.80;99.90;;;;;;5289402;27;20006;-72
2024/04/22 11:21:03;;;;;;;4.25;3.40;;;5.90;99.90;;;;;;5290089;27;20337;-73
2024/04/22 11:23:28;;;;;;;3.90;3.20;;;5.90;99.90;;;;;;5291819;26;20004;-73
2024/04/22 11:25:54;;;;;;;3.92;3.20;;;5.70;99.90;;;;;;5301026;27;20014;-73
2024/04/22 11:28:20;;;;;;;4.40;3.28;;;5.50;99.90;;;;;;5293821;26;20005;-73
2024/04/22 11:30:49;;;;;;;3.75;3.38;;;5.30;99.90;;;;;;5289757;26;20581;-72
2024/04/22 11:33:15;;;;;;;3.08;2.72;;;5.20;98.70;;;;;;5294924;26;19997;-72
2024/04/22 11:35:41;;;;;;;3.75;2.90;;;5.00;94.10;;;;;;5293635;26;20088;-73
2024/04/22 11:38:20;;;;;;;3.22;2.83;;;5.00;98.70;;;;;;5266916;27;20019;-74
2024/04/22 11:40:47;;;;;;;2.95;2.70;;;5.10;99.00;;;;;;5290460;26;20039;-73
2024/04/22 11:43:13;;;;;;;3.03;2.67;;;5.30;99.90;;;;;;5286865;27;20016;-72
2024/04/22 11:45:39;;;;;;;2.90;2.70;;;5.50;99.90;;;;;;5287452;26;20010;-73
2024/04/22 11:48:05;;;;;;;3.40;3.10;;;5.80;98.20;;;;;;5291248;27;20002;-72
2024/04/22 11:50:31;;;;;;;2.83;2.63;;;6.00;96.00;;;;;;5294070;26;20085;-73
2024/04/22 11:52:57;;;;;;;2.95;2.60;;;5.90;98.20;;;;;;5296697;27;20021;-73
2024/04/22 11:55:22;;;;;;;3.00;2.80;;;5.90;93.90;;;;;;5297284;26;20094;-72
2024/04/22 11:57:48;;;;;;;3.95;2.75;;;6.10;96.80;;;;;;5284070;26;20009;-73
2024/04/22 12:00:14;;;;;;;3.92;3.20;;;6.10;96.30;;;;;;5263450;27;20359;-72
2024/04/22 12:02:39;;;;;;;4.00;3.33;;;5.80;92.70;;;;;;5292341;26;20005;-73
2024/04/22 12:05:12;;;;;;;3.00;2.45;;;5.70;94.50;;;;;;5284703;26;20006;-73
2024/04/22 12:07:42;;;;;;;2.38;2.20;;;5.70;91.90;;;;;;5290620;27;20405;-73
2024/04/22 12:10:09;;;;;;;3.00;2.67;;;5.70;95.30;;;;;;5258075;27;20010;-73
2024/04/22 12:12:34;;;;;;;3.90;3.17;;;5.80;97.60;;;;;;5288130;26;20013;-72
2024/04/22 12:15:00;;;;;;;3.08;2.78;;;5.80;95.40;;;;;;5294189;27;19997;-72
2024/04/22 12:17:26;;;;;;;3.80;3.40;;;5.80;98.00;;;;;;5284165;26;20766;-73
2024/04/22 12:19:52;;;;;;;4.20;3.47;;;5.80;96.10;;;;;;5281387;26;20633;-72
2024/04/22 12:22:17;;;;;;;3.90;3.47;;;5.80;99.90;;;;;;5285795;27;20012;-72
2024/04/22 12:24:44;;;;;;;3.40;3.10;;;5.80;98.30;;;;;;5285925;27;19999;-73
2024/04/22 12:27:10;;;;;;;3.70;3.40;;;5.80;95.20;;;;;;5289215;26;20001;-73
2024/04/22 12:29:35;;;;;;;3.45;3.15;;;5.80;99.20;;;;;;5293411;26;20460;-72
2024/04/22 12:32:01;;;;;;;4.00;3.10;;;5.80;98.50;;;;;;5261183;27;20001;-72
2024/04/22 12:34:27;;;;;;;2.95;2.72;;;5.90;99.90;;;;;;5290831;26;20012;-73
2024/04/22 12:36:53;;;;;;;3.30;3.00;;;6.00;99.00;;;;;;5283852;26;20010;-72
2024/04/22 12:39:18;;;;;;;4.05;3.03;;;6.00;98.50;;;;;;5289849;26;20021;-71
2024/04/22 12:41:44;;;;;;;3.80;3.05;;;6.00;99.90;;;;;;5263024;27;20084;-72
2024/04/22 12:44:10;;;;;;;4.55;3.03;;;6.10;99.90;;;;;;5283562;26;20096;-71
2024/04/22 12:50:42;;;;;;;2.60;2.40;;;6.30;95.90;;;;;;5294106;27;20002;-72
2024/04/22 12:52:06;;;;;;;3.03;2.83;;;6.30;97.50;;;;;;5290544;27;20012;-73
2024/04/22 12:54:32;;;;;;;2.70;2.50;;;6.30;96.00;;;;;;5286501;26;20401;-72
2024/04/22 12:56:57;;;;;;;3.28;2.90;;;6.30;97.30;;;;;;5264888;27;20324;-73
2024/04/22 12:59:23;;;;;;;4.20;3.22;;;6.30;96.80;;;;;;5258119;27;20012;-72
2024/04/22 13:01:49;;;;;;;4.50;3.20;;;6.30;94.10;;;;;;5280187;27;20056;-72
2024/04/22 13:04:14;;;;;;;4.10;3.08;;;6.40;97.50;;;;;;5287767;27;20197;-72
2024/04/22 13:06:40;;;;;;;3.05;2.75;;;6.40;95.60;;;;;;5291277;26;20082;-72